createdAt,value
2019-04-28T00:02:20.584Z,2.40
2019-04-28T00:04:49.200Z,2.93
2019-04-28T00:07:16.424Z,4.33
2019-04-28T00:09:43.679Z,2.50
2019-04-28T00:12:11.479Z,4.40
2019-04-28T00:14:39.024Z,2.53
2019-04-28T00:17:07.366Z,2.13
2019-04-28T00:19:34.933Z,2.13
2019-04-28T00:22:24.388Z,3.57
2019-04-28T00:25:11.541Z,3.27
2019-04-28T00:27:38.802Z,3.03
2019-04-28T00:30:07.131Z,3.03
2019-04-28T00:32:34.353Z,2.67
2019-04-28T00:35:02.350Z,2.83
2019-04-28T00:37:34.899Z,3.00
2019-04-28T00:40:02.360Z,3.63
2019-04-28T00:42:31.339Z,3.37
2019-04-28T00:44:58.838Z,2.40
2019-04-28T00:47:26.068Z,2.00
2019-04-28T00:49:53.353Z,3.40
2019-04-28T00:52:22.185Z,2.80
2019-04-28T00:54:50.105Z,3.40
2019-04-28T00:57:18.002Z,2.27
2019-04-28T00:59:54.137Z,2.50
2019-04-28T01:02:34.545Z,2.60
2019-04-28T01:05:02.018Z,3.90
2019-04-28T01:07:31.327Z,3.23
2019-04-28T01:09:58.460Z,3.03
2019-04-28T01:12:25.689Z,4.27
2019-04-28T01:14:55.527Z,4.67
2019-04-28T01:17:40.228Z,2.47
2019-04-28T01:20:09.851Z,4.07
2019-04-28T01:22:37.174Z,4.43
2019-04-28T01:25:04.676Z,5.07
2019-04-28T01:27:51.503Z,3.40
2019-04-28T01:30:40.112Z,4.13
2019-04-28T01:33:17.064Z,4.07
2019-04-28T01:35:44.303Z,3.57
2019-04-28T01:38:12.270Z,3.47
2019-04-28T01:40:41.272Z,3.03
2019-04-28T01:43:09.701Z,3.60
2019-04-28T01:45:37.077Z,2.93
2019-04-28T01:48:04.318Z,5.83
2019-04-28T01:50:31.542Z,2.63
2019-04-28T01:52:59.760Z,2.30
2019-04-28T01:55:27.179Z,4.67
2019-04-28T01:57:54.398Z,3.43
2019-04-28T02:00:25.455Z,3.10
2019-04-28T02:02:51.039Z,5.97
2019-04-28T02:05:19.670Z,3.87
2019-04-28T02:07:47.092Z,2.80
2019-04-28T02:10:14.368Z,3.80
2019-04-28T02:12:41.629Z,4.23
2019-04-28T02:15:10.486Z,3.33
2019-04-28T02:17:39.997Z,3.07
2019-04-28T02:20:10.347Z,3.57
2019-04-28T02:22:46.244Z,2.97
2019-04-28T02:25:13.472Z,3.67
2019-04-28T02:27:40.717Z,3.33
2019-04-28T02:30:11.509Z,4.97
2019-04-28T02:32:40.701Z,2.83
2019-04-28T02:35:10.398Z,3.83
2019-04-28T02:37:36.749Z,4.97
2019-04-28T02:40:04.788Z,3.30
2019-04-28T02:42:32.016Z,3.77
2019-04-28T02:45:00.585Z,2.97
2019-04-28T02:47:28.136Z,4.07
2019-04-28T02:50:17.949Z,3.47
2019-04-28T02:53:02.317Z,3.80
2019-04-28T02:55:31.659Z,5.73
2019-04-28T02:58:01.427Z,4.13
2019-04-28T03:00:28.077Z,3.83
2019-04-28T03:02:55.353Z,4.03
2019-04-28T03:05:22.672Z,3.13
2019-04-28T03:07:51.483Z,5.47
2019-04-28T03:10:21.340Z,5.23
2019-04-28T03:12:51.334Z,3.17
2019-04-28T03:15:20.218Z,5.27
2019-04-28T03:17:46.632Z,4.63
2019-04-28T03:20:13.859Z,4.83
2019-04-28T03:22:41.217Z,5.13
2019-04-28T03:25:13.175Z,4.77
2019-04-28T03:28:00.595Z,4.27
2019-04-28T03:30:53.787Z,2.93
2019-04-28T03:33:25.128Z,4.17
2019-04-28T03:35:53.391Z,2.67
2019-04-28T03:38:21.219Z,3.77
2019-04-28T03:40:47.446Z,3.27
2019-04-28T03:43:14.898Z,2.60
2019-04-28T03:45:50.336Z,3.47
2019-04-28T03:48:17.739Z,4.07
2019-04-28T03:50:44.994Z,2.97
2019-04-28T03:53:12.220Z,3.50
2019-04-28T03:55:41.573Z,4.63
2019-04-28T03:58:10.367Z,3.27
2019-04-28T04:00:40.625Z,5.50
2019-04-28T04:03:06.894Z,3.50
2019-04-28T04:05:34.227Z,4.00
2019-04-28T04:08:01.490Z,3.17
2019-04-28T04:10:40.856Z,2.97
2019-04-28T04:13:33.063Z,3.13
2019-04-28T04:16:20.518Z,2.40
2019-04-28T04:18:53.158Z,2.60
2019-04-28T04:21:21.180Z,4.17
2019-04-28T04:23:47.215Z,3.27
2019-04-28T04:26:14.425Z,3.10
2019-04-28T04:28:42.033Z,3.03
2019-04-28T04:31:10.377Z,3.13
2019-04-28T04:33:40.750Z,4.37
2019-04-28T04:36:07.025Z,2.00
2019-04-28T04:38:34.250Z,2.67
2019-04-28T04:41:01.900Z,3.10
2019-04-28T04:43:31.057Z,1.60
2019-04-28T04:46:17.533Z,1.73
2019-04-28T04:48:45.408Z,2.77
2019-04-28T04:51:12.971Z,2.03
2019-04-28T04:53:40.872Z,1.63
2019-04-28T04:56:10.514Z,3.00
2019-04-28T04:58:37.507Z,2.23
2019-04-28T05:01:14.443Z,2.10
2019-04-28T05:03:43.278Z,1.83
2019-04-28T05:06:29.799Z,1.73
2019-04-28T05:08:57.159Z,2.10
2019-04-28T05:11:24.418Z,2.13
2019-04-28T05:13:51.650Z,2.20
2019-04-28T05:16:19.757Z,1.43
2019-04-28T05:18:47.147Z,2.13
2019-04-28T05:21:14.465Z,3.00
2019-04-28T05:23:49.314Z,2.00
2019-04-28T05:26:16.829Z,2.10
2019-04-28T05:28:50.597Z,2.90
2019-04-28T05:31:19.938Z,4.20
2019-04-28T05:33:42.378Z,1.93
2019-04-28T05:36:11.813Z,3.40
2019-04-28T05:38:40.169Z,2.90
2019-04-28T05:41:10.432Z,3.93
2019-04-28T05:43:37.380Z,4.47
2019-04-28T05:46:04.679Z,2.73
2019-04-28T05:48:47.224Z,2.27
2019-04-28T05:51:19.770Z,2.27
2019-04-28T05:53:53.880Z,3.33
2019-04-28T05:56:26.979Z,3.30
2019-04-28T05:59:01.055Z,3.53
2019-04-28T06:01:46.485Z,3.63
2019-04-28T06:04:13.724Z,2.83
2019-04-28T06:06:43.057Z,2.97
2019-04-28T06:09:20.542Z,3.13
2019-04-28T06:11:49.529Z,3.93
2019-04-28T06:14:17.355Z,4.00
2019-04-28T06:16:44.782Z,3.30
2019-04-28T06:19:12.052Z,4.40
2019-04-28T06:21:39.304Z,3.90
2019-04-28T06:24:06.529Z,3.83
2019-04-28T06:26:33.817Z,4.03
2019-04-28T06:29:01.040Z,5.77
2019-04-28T06:31:28.389Z,3.97
2019-04-28T06:33:55.660Z,3.20
2019-04-28T06:36:22.913Z,3.83
2019-04-28T06:38:50.151Z,4.60
2019-04-28T06:41:17.404Z,4.53
2019-04-28T06:43:44.644Z,3.30
2019-04-28T06:46:11.967Z,4.67
2019-04-28T06:48:39.452Z,5.40
2019-04-28T06:51:06.676Z,4.40
2019-04-28T06:53:33.993Z,3.90
2019-04-28T06:56:01.247Z,5.93
2019-04-28T06:58:29.001Z,4.13
2019-04-28T07:00:56.365Z,3.77
2019-04-28T07:03:23.604Z,3.87
2019-04-28T07:05:50.830Z,2.80
2019-04-28T07:08:18.085Z,3.70
2019-04-28T07:10:48.411Z,3.30
2019-04-28T07:13:15.716Z,3.83
2019-04-28T07:15:42.946Z,4.57
2019-04-28T07:18:10.173Z,3.47
2019-04-28T07:20:59.869Z,3.67
2019-04-28T07:23:27.237Z,3.13
2019-04-28T07:25:54.475Z,3.33
2019-04-28T07:28:21.770Z,3.17
2019-04-28T07:30:49.360Z,2.60
2019-04-28T07:33:16.758Z,2.53
2019-04-28T07:35:44.158Z,3.80
2019-04-28T07:38:11.463Z,4.73
2019-04-28T07:40:39.746Z,5.47
2019-04-28T07:43:07.152Z,3.87
2019-04-28T07:45:34.654Z,4.67
2019-04-28T07:48:01.980Z,3.17
2019-04-28T07:50:29.254Z,2.50
2019-04-28T07:53:17.174Z,3.67
2019-04-28T07:55:44.430Z,3.87
2019-04-28T07:58:11.997Z,2.83
2019-04-28T08:00:39.420Z,2.90
2019-04-28T08:03:06.694Z,3.63
2019-04-28T08:05:34.014Z,3.27
2019-04-28T08:08:01.274Z,4.37
2019-04-28T08:10:28.661Z,4.50
2019-04-28T08:12:55.935Z,3.97
2019-04-28T08:15:23.162Z,2.87
2019-04-28T08:17:50.393Z,3.10
2019-04-28T08:20:17.694Z,4.03
2019-04-28T08:22:44.938Z,3.50
2019-04-28T08:25:12.182Z,2.90
2019-04-28T08:27:39.612Z,2.60
2019-04-28T08:30:07.165Z,2.80
2019-04-28T08:32:40.759Z,4.57
2019-04-28T08:35:08.120Z,2.73
2019-04-28T08:37:35.417Z,3.63
2019-04-28T08:40:03.264Z,3.33
2019-04-28T08:42:30.529Z,2.50
2019-04-28T08:44:57.795Z,3.00
2019-04-28T08:47:25.170Z,2.90
2019-04-28T08:49:52.410Z,2.60
2019-04-28T08:52:19.633Z,3.17
2019-04-28T08:54:46.958Z,2.17
2019-04-28T08:57:14.177Z,3.87
2019-04-28T08:59:41.401Z,3.00
2019-04-28T09:02:08.676Z,4.93
2019-04-28T09:04:35.911Z,2.67
2019-04-28T09:07:03.246Z,3.40
2019-04-28T09:09:30.625Z,2.30
2019-04-28T09:11:57.893Z,4.90
2019-04-28T09:14:25.127Z,3.00
2019-04-28T09:16:52.495Z,2.80
2019-04-28T09:19:19.760Z,3.03
2019-04-28T09:21:46.991Z,2.50
2019-04-28T09:24:14.217Z,3.27
2019-04-28T09:26:41.488Z,2.97
2019-04-28T09:29:08.811Z,3.50
2019-04-28T09:31:36.390Z,2.57
2019-04-28T09:34:04.072Z,2.43
2019-04-28T09:36:31.520Z,1.90
2019-04-28T09:38:59.362Z,2.87
2019-04-28T09:41:26.882Z,4.17
2019-04-28T09:44:16.670Z,3.83
2019-04-28T09:46:44.025Z,3.57
2019-04-28T09:49:11.840Z,3.33
2019-04-28T09:51:39.102Z,4.60
2019-04-28T09:54:06.591Z,4.27
2019-04-28T09:56:33.818Z,3.10
2019-04-28T09:59:01.044Z,3.97
2019-04-28T10:01:28.398Z,3.87
2019-04-28T10:03:55.629Z,2.03
2019-04-28T10:06:22.858Z,3.83
2019-04-28T10:08:50.131Z,2.60
2019-04-28T10:11:29.721Z,3.10
2019-04-28T10:13:46.511Z,3.03
2019-04-28T10:16:13.753Z,3.53
2019-04-28T10:18:40.988Z,2.90
2019-04-28T10:21:08.283Z,5.27
2019-04-28T10:23:35.515Z,3.47
2019-04-28T10:26:02.761Z,3.93
2019-04-28T10:28:30.054Z,3.03
2019-04-28T10:30:57.288Z,3.87
2019-04-28T10:33:24.513Z,2.73
2019-04-28T10:35:51.774Z,4.43
2019-04-28T10:38:19.016Z,4.93
2019-04-28T10:40:58.548Z,3.77
2019-04-28T10:43:26.116Z,3.03
2019-04-28T10:45:53.399Z,2.40
2019-04-28T10:48:20.658Z,3.03
2019-04-28T10:50:47.959Z,4.80
2019-04-28T10:53:15.218Z,2.93
2019-04-28T10:55:42.437Z,2.90
2019-04-28T10:58:09.714Z,6.17
2019-04-28T11:00:38.786Z,2.53
2019-04-28T11:03:06.134Z,4.27
2019-04-28T11:05:37.792Z,5.40
2019-04-28T11:08:07.887Z,4.90
2019-04-28T11:10:35.106Z,5.47
2019-04-28T11:13:02.402Z,3.43
2019-04-28T11:15:34.896Z,3.50
2019-04-28T11:18:02.220Z,3.50
2019-04-28T11:20:30.054Z,2.63
2019-04-28T11:22:57.281Z,5.17
2019-04-28T11:25:24.510Z,3.60
2019-04-28T11:27:51.780Z,4.43
2019-04-28T11:30:19.314Z,3.03
2019-04-28T11:33:18.397Z,2.10
2019-04-28T11:35:45.916Z,4.10
2019-04-28T11:38:13.162Z,5.93
2019-04-28T11:40:40.450Z,4.43
2019-04-28T11:43:07.689Z,2.27
2019-04-28T11:45:35.027Z,3.33
2019-04-28T11:48:02.547Z,4.10
2019-04-28T11:50:29.841Z,2.33
2019-04-28T11:52:57.059Z,4.07
2019-04-28T11:55:24.345Z,2.27
2019-04-28T11:57:51.580Z,2.23
2019-04-28T12:00:31.618Z,3.37
2019-04-28T12:02:59.036Z,2.93
2019-04-28T12:05:34.706Z,1.93
2019-04-28T12:08:00.550Z,1.80
2019-04-28T12:10:32.483Z,2.40
2019-04-28T12:13:25.313Z,2.43
2019-04-28T12:16:16.291Z,2.83
2019-04-28T12:18:49.355Z,2.97
2019-04-28T12:21:16.591Z,3.27
2019-04-28T12:23:44.239Z,2.83
2019-04-28T12:26:11.520Z,2.43
2019-04-28T12:28:38.778Z,3.37
2019-04-28T12:31:08.015Z,4.30
2019-04-28T12:33:35.320Z,4.63
2019-04-28T12:36:04.652Z,3.77
2019-04-28T12:38:31.909Z,3.50
2019-04-28T12:40:59.170Z,3.53
2019-04-28T12:43:26.486Z,4.27
2019-04-28T12:45:53.725Z,4.43
2019-04-28T12:48:21.039Z,5.33
2019-04-28T12:50:50.040Z,4.20
2019-04-28T12:53:17.276Z,4.50
2019-04-28T12:55:44.554Z,5.00
2019-04-28T12:58:11.850Z,4.97
2019-04-28T13:00:57.207Z,4.93
2019-04-28T13:03:33.310Z,4.13
2019-04-28T13:06:05.550Z,4.47
2019-04-28T13:08:31.298Z,3.80
2019-04-28T13:10:58.575Z,2.53
2019-04-28T13:13:25.816Z,2.33
2019-04-28T13:15:53.049Z,2.20
2019-04-28T13:18:20.332Z,3.03
2019-04-28T13:20:47.588Z,3.77
2019-04-28T13:23:14.808Z,4.07
2019-04-28T13:25:42.137Z,4.20
2019-04-28T13:28:09.338Z,3.77
2019-04-28T13:30:36.573Z,4.97
2019-04-28T13:33:03.870Z,5.37
2019-04-28T13:35:31.222Z,3.63
2019-04-28T13:37:58.461Z,4.23
2019-04-28T13:40:29.558Z,3.53
2019-04-28T13:42:56.831Z,3.60
2019-04-28T13:45:24.381Z,5.60
2019-04-28T13:47:51.594Z,6.90
2019-04-28T13:50:27.235Z,4.27
2019-04-28T13:52:54.456Z,4.47
2019-04-28T13:55:39.730Z,3.73
2019-04-28T13:58:07.105Z,3.70
2019-04-28T14:00:57.938Z,3.70
2019-04-28T14:03:44.699Z,3.27
2019-04-28T14:06:27.218Z,3.73
2019-04-28T14:08:43.486Z,3.70
2019-04-28T14:11:10.871Z,3.13
2019-04-28T14:13:38.152Z,4.90
2019-04-28T14:16:05.588Z,4.00
2019-04-28T14:18:32.859Z,4.20
2019-04-28T14:21:00.078Z,3.23
2019-04-28T14:23:27.341Z,3.40
2019-04-28T14:25:54.572Z,3.87
2019-04-28T14:28:21.816Z,2.70
2019-04-28T14:30:49.108Z,4.93
2019-04-28T14:33:16.782Z,5.37
2019-04-28T14:35:44.115Z,3.20
2019-04-28T14:38:11.384Z,3.10
2019-04-28T14:40:38.627Z,3.93
2019-04-28T14:43:05.849Z,3.20
2019-04-28T14:45:33.324Z,3.40
2019-04-28T14:48:00.625Z,2.30
2019-04-28T14:50:27.935Z,2.20
2019-04-28T14:52:55.253Z,1.80
2019-04-28T14:55:22.562Z,1.60
2019-04-28T14:57:49.807Z,1.57
2019-04-28T15:00:22.262Z,1.20
2019-04-28T15:03:02.300Z,1.90
2019-04-28T15:05:41.256Z,2.00
2019-04-28T15:08:26.459Z,1.60
2019-04-28T15:11:01.184Z,1.87
2019-04-28T15:13:28.427Z,1.60
2019-04-28T15:15:55.639Z,1.40
2019-04-28T15:18:22.994Z,1.70
2019-04-28T15:20:50.314Z,1.80
2019-04-28T15:23:17.507Z,1.57
2019-04-28T15:25:44.736Z,1.50
2019-04-28T15:28:12.045Z,1.90
2019-04-28T15:30:39.319Z,1.03
2019-04-28T15:33:06.677Z,1.40
2019-04-28T15:35:33.995Z,2.20
2019-04-28T15:38:01.225Z,1.47
2019-04-28T15:40:28.522Z,2.00
2019-04-28T15:42:55.759Z,1.93
2019-04-28T15:45:22.978Z,1.50
2019-04-28T15:47:50.290Z,1.80
2019-04-28T15:50:17.547Z,1.57
2019-04-28T15:52:44.831Z,1.77
2019-04-28T15:55:14.423Z,1.33
2019-04-28T15:57:41.653Z,1.10
2019-04-28T16:00:11.978Z,1.20
2019-04-28T16:02:39.237Z,1.47
2019-04-28T16:05:06.892Z,1.40
2019-04-28T16:07:34.124Z,1.23
2019-04-28T16:10:01.387Z,1.40
2019-04-28T16:12:28.633Z,1.50
2019-04-28T16:14:55.873Z,0.90
2019-04-28T16:17:23.172Z,1.60
2019-04-28T16:19:50.389Z,2.03
2019-04-28T16:22:17.629Z,1.30
2019-04-28T16:24:44.917Z,1.37
2019-04-28T16:27:12.246Z,1.37
2019-04-28T16:29:39.477Z,2.27
2019-04-28T16:32:09.691Z,1.50
2019-04-28T16:34:36.025Z,1.47
2019-04-28T16:37:03.266Z,1.97
2019-04-28T16:39:30.521Z,1.30
2019-04-28T16:41:58.450Z,1.20
2019-04-28T16:44:26.412Z,2.57
2019-04-28T16:46:53.651Z,1.47
2019-04-28T16:49:20.965Z,1.20
2019-04-28T16:51:48.243Z,1.00
2019-04-28T16:54:15.483Z,2.13
2019-04-28T16:57:05.127Z,1.23
2019-04-28T16:59:50.583Z,1.40
2019-04-28T17:02:37.399Z,1.30
2019-04-28T17:05:05.863Z,1.37
2019-04-28T17:07:33.189Z,1.27
2019-04-28T17:10:00.472Z,1.20
2019-04-28T17:12:27.702Z,1.73
2019-04-28T17:14:54.914Z,1.67
2019-04-28T17:17:22.178Z,1.23
2019-04-28T17:19:49.417Z,1.53
2019-04-28T17:22:16.667Z,2.20
2019-04-28T17:24:44.025Z,2.90
2019-04-28T17:27:11.271Z,1.23
2019-04-28T17:29:38.822Z,2.10
2019-04-28T17:32:06.138Z,1.40
2019-04-28T17:34:33.403Z,2.33
2019-04-28T17:37:00.679Z,1.87
2019-04-28T17:39:29.589Z,1.67
2019-04-28T17:41:56.853Z,1.60
2019-04-28T17:44:24.184Z,1.33
2019-04-28T17:46:51.490Z,3.57
2019-04-28T17:49:24.221Z,2.00
2019-04-28T17:51:51.588Z,1.93
2019-04-28T17:54:18.853Z,1.80
2019-04-28T17:56:46.078Z,1.93
2019-04-28T17:59:13.353Z,1.83
2019-04-28T18:02:12.321Z,2.13
2019-04-28T18:04:59.138Z,2.23
2019-04-28T18:07:34.504Z,2.07
2019-04-28T18:10:01.880Z,2.40
2019-04-28T18:12:29.095Z,2.00
2019-04-28T18:15:02.131Z,2.13
2019-04-28T18:18:01.333Z,1.60
2019-04-28T18:20:28.952Z,1.70
2019-04-28T18:22:56.232Z,1.20
2019-04-28T18:25:23.560Z,2.40
2019-04-28T18:27:50.815Z,1.70
2019-04-28T18:30:20.692Z,1.73
2019-04-28T18:33:17.072Z,1.93
2019-04-28T18:35:51.046Z,2.77
2019-04-28T18:38:40.700Z,2.27
2019-04-28T18:41:26.138Z,4.17
2019-04-28T18:44:06.619Z,3.47
2019-04-28T18:46:33.884Z,4.73
2019-04-28T18:49:01.109Z,3.23
2019-04-28T18:51:28.385Z,4.50
2019-04-28T18:53:55.649Z,3.70
2019-04-28T18:56:22.886Z,4.70
2019-04-28T18:58:50.175Z,3.87
2019-04-28T19:01:31.647Z,5.27
2019-04-28T19:03:58.928Z,4.30
2019-04-28T19:06:26.153Z,5.67
2019-04-28T19:08:58.742Z,5.93
2019-04-28T19:11:45.611Z,7.57
2019-04-28T19:14:22.128Z,4.83
2019-04-28T19:17:11.630Z,4.60
2019-04-28T19:19:39.072Z,6.40
2019-04-28T19:22:06.334Z,5.10
2019-04-28T19:24:33.647Z,4.03
2019-04-28T19:27:00.862Z,5.03
2019-04-28T19:29:28.090Z,6.60
2019-04-28T19:31:55.363Z,5.50
2019-04-28T19:34:22.577Z,5.03
2019-04-28T19:36:49.857Z,5.30
2019-04-28T19:39:17.114Z,5.53
2019-04-28T19:41:44.342Z,4.43
2019-04-28T19:44:11.575Z,3.83
2019-04-28T19:46:38.844Z,3.80
2019-04-28T19:49:06.065Z,5.00
2019-04-28T19:51:33.392Z,5.10
2019-04-28T19:54:00.940Z,3.23
2019-04-28T19:56:47.697Z,4.07
2019-04-28T19:59:22.149Z,3.10
2019-04-28T20:01:49.477Z,4.70
2019-04-28T20:04:16.710Z,3.73
2019-04-28T20:06:43.987Z,4.20
2019-04-28T20:09:12.602Z,4.23
2019-04-28T20:11:40.214Z,3.20
2019-04-28T20:14:07.491Z,3.73
2019-04-28T20:16:34.711Z,5.20
2019-04-28T20:19:01.935Z,4.67
2019-04-28T20:21:29.189Z,3.30
2019-04-28T20:23:56.767Z,2.97
2019-04-28T20:26:24.047Z,3.10
2019-04-28T20:28:51.326Z,3.03
2019-04-28T20:31:18.556Z,2.37
2019-04-28T20:33:45.775Z,2.60
2019-04-28T20:36:25.010Z,2.70
2019-04-28T20:38:55.401Z,2.70
2019-04-28T20:41:24.635Z,3.63
2019-04-28T20:43:53.175Z,1.70
2019-04-28T20:46:20.865Z,2.73
2019-04-28T20:48:48.106Z,2.03
2019-04-28T20:51:15.393Z,1.60
2019-04-28T20:53:42.716Z,3.50
2019-04-28T20:56:09.980Z,1.80
2019-04-28T20:58:37.274Z,2.00
2019-04-28T21:01:04.703Z,2.20
2019-04-28T21:03:31.961Z,2.33
2019-04-28T21:05:59.243Z,1.90
2019-04-28T21:08:26.512Z,1.80
2019-04-28T21:10:53.768Z,1.80
2019-04-28T21:13:21.066Z,2.97
2019-04-28T21:15:48.307Z,2.37
2019-04-28T21:18:15.546Z,2.30
2019-04-28T21:20:42.796Z,3.00
2019-04-28T21:23:10.104Z,2.37
2019-04-28T21:25:37.420Z,2.00
2019-04-28T21:28:04.708Z,1.60
2019-04-28T21:30:31.985Z,2.37
2019-04-28T21:32:59.219Z,4.03
2019-04-28T21:35:26.520Z,3.03
2019-04-28T21:37:53.753Z,2.00
2019-04-28T21:40:21.100Z,2.27
2019-04-28T21:43:10.741Z,1.90
2019-04-28T21:46:03.284Z,2.10
2019-04-28T21:48:37.165Z,1.70
2019-04-28T21:51:04.431Z,1.73
2019-04-28T21:53:31.761Z,2.23
2019-04-28T21:55:59.087Z,2.47
2019-04-28T21:58:32.945Z,1.77
2019-04-28T22:00:56.114Z,1.60
2019-04-28T22:03:23.491Z,2.50
2019-04-28T22:05:50.940Z,1.60
2019-04-28T22:08:18.326Z,1.50
2019-04-28T22:10:45.627Z,1.80
2019-04-28T22:13:12.854Z,1.63
2019-04-28T22:15:40.115Z,1.60
2019-04-28T22:18:07.459Z,1.60
2019-04-28T22:20:34.751Z,2.83
2019-04-28T22:23:17.829Z,1.90
2019-04-28T22:25:33.739Z,2.00
2019-04-28T22:28:00.985Z,2.70
2019-04-28T22:30:28.197Z,1.70
2019-04-28T22:32:55.437Z,2.10
2019-04-28T22:35:22.717Z,2.67
2019-04-28T22:37:49.934Z,3.33
2019-04-28T22:40:17.164Z,1.83
2019-04-28T22:42:44.477Z,2.30
2019-04-28T22:45:13.394Z,2.73
2019-04-28T22:47:40.917Z,2.83
2019-04-28T22:50:30.016Z,2.30
2019-04-28T22:52:57.310Z,3.30
2019-04-28T22:55:24.933Z,2.67
2019-04-28T22:58:11.370Z,2.87
2019-04-28T23:01:00.546Z,2.57
2019-04-28T23:03:53.554Z,3.97
2019-04-28T23:06:21.016Z,2.90
2019-04-28T23:08:48.335Z,3.57
2019-04-28T23:11:15.724Z,2.80
2019-04-28T23:13:43.440Z,3.50
2019-04-28T23:16:10.782Z,3.93
2019-04-28T23:18:38.024Z,3.27
2019-04-28T23:21:13.178Z,3.90
2019-04-28T23:23:40.433Z,2.80
2019-04-28T23:26:07.696Z,2.50
2019-04-28T23:28:35.223Z,3.53
2019-04-28T23:31:02.565Z,2.67
2019-04-28T23:33:29.793Z,3.73
2019-04-28T23:35:57.445Z,2.63
2019-04-28T23:38:24.670Z,3.80
2019-04-28T23:41:11.593Z,3.40
2019-04-28T23:43:38.903Z,3.87
2019-04-28T23:46:06.155Z,4.63
2019-04-28T23:48:33.413Z,5.10
2019-04-28T23:51:10.076Z,4.60
2019-04-28T23:53:57.633Z,3.63
2019-04-28T23:56:24.916Z,4.07
2019-04-28T23:58:52.157Z,4.00
